createdAt,value
2023-03-21T00:01:40.455Z,7.70
2023-03-21T00:04:08.176Z,6.47
2023-03-21T00:06:36.765Z,8.53
2023-03-21T00:09:04.763Z,9.03
2023-03-21T00:11:32.569Z,8.60
2023-03-21T00:14:02.444Z,8.07
2023-03-21T00:16:36.071Z,8.30
2023-03-21T00:19:06.880Z,8.13
2023-03-21T00:21:59.265Z,7.03
2023-03-21T00:24:26.160Z,7.67
2023-03-21T00:26:53.962Z,7.97
2023-03-21T00:29:21.674Z,7.73
2023-03-21T00:31:49.677Z,6.87
2023-03-21T00:34:26.730Z,6.40
2023-03-21T00:37:04.323Z,6.67
2023-03-21T00:39:32.191Z,8.53
2023-03-21T00:41:59.883Z,7.23
2023-03-21T00:44:27.545Z,7.43
2023-03-21T00:47:06.602Z,7.27
2023-03-21T00:49:38.487Z,8.00
2023-03-21T00:52:17.088Z,8.13
2023-03-21T00:54:50.176Z,6.77
2023-03-21T00:57:20.204Z,7.83
2023-03-21T00:59:48.004Z,7.87
2023-03-21T01:02:23.258Z,7.80
2023-03-21T01:04:52.309Z,8.57
2023-03-21T01:07:19.931Z,7.63
2023-03-21T01:09:47.636Z,8.43
2023-03-21T01:12:16.756Z,7.73
2023-03-21T01:14:44.378Z,7.63
2023-03-21T01:17:11.941Z,8.13
2023-03-21T01:19:51.161Z,8.60
2023-03-21T01:22:21.538Z,8.30
2023-03-21T01:24:57.019Z,8.63
2023-03-21T01:27:28.549Z,7.50
2023-03-21T01:29:56.383Z,8.30
2023-03-21T01:32:23.961Z,8.43
2023-03-21T01:34:51.578Z,8.07
2023-03-21T01:37:20.074Z,8.53
2023-03-21T01:39:49.029Z,8.23
2023-03-21T01:42:17.118Z,8.83
2023-03-21T01:44:56.651Z,8.23
2023-03-21T01:47:24.358Z,8.80
2023-03-21T01:49:53.977Z,7.93
2023-03-21T01:52:35.959Z,8.10
2023-03-21T01:55:08.453Z,8.83
2023-03-21T01:57:49.437Z,8.60
2023-03-21T02:00:21.666Z,8.47
2023-03-21T02:02:52.670Z,8.27
2023-03-21T02:05:23.893Z,8.67
2023-03-21T02:07:53.735Z,8.33
2023-03-21T02:10:23.367Z,8.80
2023-03-21T02:12:51.155Z,8.57
2023-03-21T02:15:18.927Z,7.70
2023-03-21T02:17:51.457Z,8.40
2023-03-21T02:20:40.823Z,7.90
2023-03-21T02:23:22.050Z,7.77
2023-03-21T02:26:24.788Z,9.70
2023-03-21T02:28:57.679Z,8.37
2023-03-21T02:31:32.298Z,8.13
2023-03-21T02:34:48.812Z,8.33
2023-03-21T02:37:28.973Z,7.53
2023-03-21T02:40:11.081Z,8.17
2023-03-21T02:42:51.541Z,7.93
2023-03-21T02:45:28.162Z,8.93
2023-03-21T02:47:58.940Z,9.13
2023-03-21T02:50:31.268Z,8.80
2023-03-21T02:53:01.424Z,9.70
2023-03-21T02:55:32.352Z,9.60
2023-03-21T02:58:11.706Z,9.67
2023-03-21T03:00:40.708Z,8.97
2023-03-21T03:03:11.456Z,9.00
2023-03-21T03:05:44.773Z,8.80
2023-03-21T03:08:26.572Z,9.23
2023-03-21T03:11:10.216Z,9.20
2023-03-21T03:13:51.744Z,8.70
2023-03-21T03:16:27.454Z,8.87
2023-03-21T03:18:56.805Z,8.63
2023-03-21T03:21:29.459Z,8.90
2023-03-21T03:23:59.394Z,8.70
2023-03-21T03:26:30.339Z,8.03
2023-03-21T03:29:01.838Z,8.73
2023-03-21T03:31:33.237Z,7.57
2023-03-21T03:34:02.802Z,10.03
2023-03-21T03:36:36.304Z,8.17
2023-03-21T03:39:09.273Z,8.43
2023-03-21T03:42:05.986Z,8.37
2023-03-21T03:44:30.649Z,8.43
2023-03-21T03:47:01.493Z,7.80
2023-03-21T03:49:32.807Z,8.37
2023-03-21T03:52:03.089Z,8.40
2023-03-21T03:54:34.314Z,8.10
2023-03-21T03:57:02.449Z,8.47
2023-03-21T03:59:30.195Z,8.37
2023-03-21T04:01:57.845Z,9.17
2023-03-21T04:04:28.978Z,8.17
2023-03-21T04:06:58.092Z,8.67
2023-03-21T04:09:37.472Z,8.93
2023-03-21T04:12:12.819Z,7.07
2023-03-21T04:14:45.601Z,9.80
2023-03-21T04:17:17.508Z,8.63
2023-03-21T04:19:46.280Z,8.83
2023-03-21T04:22:14.272Z,8.60
2023-03-21T04:24:42.692Z,8.37
2023-03-21T04:27:10.591Z,12.00
2023-03-21T04:29:39.882Z,11.17
2023-03-21T04:32:16.212Z,10.13
2023-03-21T04:34:50.223Z,10.17
2023-03-21T04:37:19.037Z,9.23
2023-03-21T04:39:47.663Z,9.40
2023-03-21T04:42:18.712Z,9.63
2023-03-21T04:44:48.298Z,8.30
2023-03-21T04:47:16.961Z,8.30
2023-03-21T04:49:48.061Z,9.63
2023-03-21T04:52:15.860Z,9.00
2023-03-21T04:54:43.872Z,9.20
2023-03-21T04:57:11.519Z,8.83
2023-03-21T04:59:39.191Z,9.30
2023-03-21T05:02:08.219Z,9.07
2023-03-21T05:04:35.892Z,8.20
2023-03-21T05:07:03.539Z,8.80
2023-03-21T05:09:31.325Z,8.90
2023-03-21T05:11:59.007Z,8.80
2023-03-21T05:14:28.372Z,9.53
2023-03-21T05:16:57.239Z,10.20
2023-03-21T05:19:34.745Z,9.53
2023-03-21T05:22:04.710Z,9.07
2023-03-21T05:24:33.010Z,11.17
2023-03-21T05:27:02.640Z,9.73
2023-03-21T05:29:31.505Z,8.80
2023-03-21T05:31:59.292Z,10.57
2023-03-21T05:34:28.895Z,10.10
2023-03-21T05:36:56.672Z,9.80
2023-03-21T05:39:24.317Z,10.43
2023-03-21T05:41:51.989Z,11.43
2023-03-21T05:44:19.626Z,12.53
2023-03-21T05:46:47.223Z,12.97
2023-03-21T05:49:14.881Z,11.33
2023-03-21T05:51:45.323Z,10.90
2023-03-21T05:54:16.623Z,10.30
2023-03-21T05:56:44.343Z,9.93
2023-03-21T05:59:12.042Z,10.50
2023-03-21T06:01:39.761Z,10.70
2023-03-21T06:04:07.664Z,8.77
2023-03-21T06:06:35.420Z,8.50
2023-03-21T06:09:04.860Z,8.87
2023-03-21T06:11:34.588Z,8.47
2023-03-21T06:14:02.262Z,9.13
2023-03-21T06:16:30.475Z,8.67
2023-03-21T06:18:58.169Z,9.77
2023-03-21T06:21:26.830Z,10.00
2023-03-21T06:23:54.620Z,8.93
2023-03-21T06:26:23.715Z,9.53
2023-03-21T06:28:51.376Z,9.90
2023-03-21T06:31:19.112Z,9.80
2023-03-21T06:33:46.798Z,9.50
2023-03-21T06:36:14.400Z,9.20
2023-03-21T06:38:42.066Z,9.67
2023-03-21T06:41:10.312Z,9.67
2023-03-21T06:43:39.320Z,10.23
2023-03-21T06:46:07.095Z,9.67
2023-03-21T06:48:34.885Z,10.77
2023-03-21T06:51:02.459Z,9.23
2023-03-21T06:53:30.200Z,9.43
2023-03-21T06:55:57.910Z,9.33
2023-03-21T06:58:25.625Z,9.17
2023-03-21T07:00:59.246Z,12.27
2023-03-21T07:03:27.161Z,8.87
2023-03-21T07:05:54.984Z,9.07
2023-03-21T07:08:22.646Z,9.50
2023-03-21T07:10:50.525Z,11.63
2023-03-21T07:13:18.188Z,20.93
2023-03-21T07:15:45.797Z,9.27
2023-03-21T07:18:14.866Z,9.10
2023-03-21T07:20:42.597Z,7.80
2023-03-21T07:23:10.264Z,8.00
2023-03-21T07:25:38.129Z,7.43
2023-03-21T07:28:09.296Z,6.00
2023-03-21T07:30:37.893Z,6.60
2023-03-21T07:33:07.143Z,6.43
2023-03-21T07:35:37.491Z,8.80
2023-03-21T07:38:05.405Z,6.90
2023-03-21T07:40:33.339Z,6.43
2023-03-21T07:45:33.438Z,7.43
2023-03-21T07:48:01.840Z,7.17
2023-03-21T07:50:29.506Z,10.57
2023-03-21T07:52:58.522Z,6.83
2023-03-21T07:55:26.212Z,6.80
2023-03-21T07:57:54.552Z,6.90
2023-03-21T08:00:23.829Z,6.87
2023-03-21T08:02:57.182Z,6.50
2023-03-21T08:05:28.055Z,6.17
2023-03-21T08:07:55.904Z,6.43
2023-03-21T08:10:25.196Z,6.37
2023-03-21T08:12:52.939Z,6.70
2023-03-21T08:15:20.920Z,7.10
2023-03-21T08:17:48.618Z,6.53
2023-03-21T08:20:18.508Z,6.83
2023-03-21T08:22:46.108Z,5.80
2023-03-21T08:25:15.320Z,6.53
2023-03-21T08:27:45.472Z,6.93
2023-03-21T08:30:14.921Z,5.73
2023-03-21T08:32:42.981Z,5.83
2023-03-21T08:35:12.138Z,5.23
2023-03-21T08:37:40.217Z,5.10
2023-03-21T08:40:11.321Z,4.67
2023-03-21T08:42:39.513Z,4.30
2023-03-21T08:45:09.979Z,4.90
2023-03-21T08:47:38.108Z,4.73
2023-03-21T08:50:07.918Z,4.73
2023-03-21T08:52:35.609Z,4.70
2023-03-21T08:55:03.672Z,4.73
2023-03-21T08:57:31.407Z,4.90
2023-03-21T08:59:59.038Z,5.63
2023-03-21T09:02:28.057Z,5.77
2023-03-21T09:04:59.140Z,5.10
2023-03-21T09:07:27.903Z,5.27
2023-03-21T09:10:14.823Z,4.60
2023-03-21T09:12:43.512Z,4.93
2023-03-21T09:15:13.113Z,5.27
2023-03-21T09:17:43.966Z,5.70
2023-03-21T09:20:20.872Z,7.60
2023-03-21T09:22:49.585Z,6.00
2023-03-21T09:25:18.018Z,5.67
2023-03-21T09:27:46.034Z,5.07
2023-03-21T09:30:16.354Z,5.43
2023-03-21T09:32:48.295Z,5.20
2023-03-21T09:35:16.267Z,5.27
2023-03-21T11:27:36.422Z,3.30
2023-03-21T11:30:06.290Z,3.23
2023-03-21T11:32:35.877Z,2.97
2023-03-21T11:35:07.329Z,3.57
2023-03-21T11:37:39.308Z,3.27
2023-03-21T11:40:16.645Z,3.10
2023-03-21T11:42:48.206Z,3.47
2023-03-21T11:45:18.493Z,5.27
2023-03-21T11:47:46.712Z,3.10
2023-03-21T11:50:20.441Z,3.13
2023-03-21T11:53:00.907Z,3.63
2023-03-21T11:55:46.289Z,3.30
2023-03-21T11:58:37.655Z,4.57
2023-03-21T12:01:12.238Z,2.63
2023-03-21T12:04:05.059Z,2.77
2023-03-21T12:06:36.642Z,3.30
2023-03-21T12:09:30.795Z,2.60
2023-03-21T12:12:24.492Z,2.57
2023-03-21T12:15:08.045Z,1.97
2023-03-21T12:17:42.429Z,1.83
2023-03-21T12:20:26.414Z,2.70
2023-03-21T12:23:02.422Z,2.70
2023-03-21T12:25:33.512Z,2.37
2023-03-21T12:28:09.549Z,3.53
2023-03-21T12:30:48.893Z,3.10
2023-03-21T12:33:26.170Z,2.00
2023-03-21T12:36:11.227Z,2.57
2023-03-21T12:38:42.101Z,2.60
2023-03-21T12:41:21.822Z,2.53
2023-03-21T12:43:54.007Z,1.90
2023-03-21T12:46:28.701Z,2.57
2023-03-21T12:48:59.497Z,2.40
2023-03-21T12:51:32.413Z,2.43
2023-03-21T12:54:08.561Z,2.43
2023-03-21T12:56:39.065Z,2.20
2023-03-21T12:59:15.249Z,5.07
2023-03-21T13:01:44.738Z,3.07
2023-03-21T13:04:42.535Z,3.87
2023-03-21T13:07:13.866Z,2.73
2023-03-21T13:09:42.666Z,2.90
2023-03-21T13:12:22.892Z,2.40
2023-03-21T13:14:59.635Z,2.93
2023-03-21T13:17:33.788Z,3.23
2023-03-21T13:20:08.671Z,3.63
2023-03-21T13:22:36.244Z,2.80
2023-03-21T13:25:06.704Z,2.73
2023-03-21T13:27:36.098Z,3.97
2023-03-21T13:30:06.850Z,2.90
2023-03-21T13:32:38.402Z,2.70
2023-03-21T13:35:16.232Z,2.57
2023-03-21T13:37:46.020Z,5.03
2023-03-21T13:40:22.928Z,3.00
2023-03-21T13:42:53.690Z,2.50
2023-03-21T13:45:29.152Z,3.00
2023-03-21T13:47:59.664Z,2.60
2023-03-21T13:50:51.101Z,3.30
2023-03-21T13:53:34.134Z,2.97
2023-03-21T13:56:09.275Z,2.97
2023-03-21T13:58:39.361Z,2.73
2023-03-21T14:01:16.153Z,2.13
2023-03-21T14:03:45.825Z,3.00
2023-03-21T14:06:13.821Z,3.83
2023-03-21T14:08:42.260Z,3.43
2023-03-21T14:11:14.593Z,3.87
2023-03-21T14:13:50.840Z,2.50
2023-03-21T14:16:19.850Z,4.10
2023-03-21T14:18:54.656Z,2.63
2023-03-21T14:21:25.057Z,2.57
2023-03-21T14:23:58.220Z,2.33
2023-03-21T14:26:26.950Z,2.73
2023-03-21T14:28:54.714Z,3.30
2023-03-21T14:31:22.481Z,3.10
2023-03-21T14:33:54.250Z,2.93
2023-03-21T14:36:25.714Z,3.40
2023-03-21T14:39:07.252Z,3.20
2023-03-21T14:41:45.998Z,3.70
2023-03-21T14:44:25.487Z,3.97
2023-03-21T14:47:04.818Z,3.70
2023-03-21T14:49:35.038Z,3.70
2023-03-21T14:52:06.717Z,3.10
2023-03-21T14:54:34.666Z,3.20
2023-03-21T14:57:03.673Z,3.70
2023-03-21T14:59:34.651Z,3.73
2023-03-21T15:02:04.519Z,3.40
2023-03-21T15:04:33.877Z,3.93
2023-03-21T15:07:05.015Z,3.50
2023-03-21T15:09:34.802Z,3.13
2023-03-21T15:12:03.719Z,5.40
2023-03-21T15:14:34.151Z,3.90
2023-03-21T15:17:04.194Z,3.20
2023-03-21T15:19:35.407Z,3.33
2023-03-21T15:22:18.736Z,3.53
2023-03-21T15:24:49.047Z,3.33
2023-03-21T15:27:18.882Z,5.50
2023-03-21T15:29:47.248Z,3.40
2023-03-21T15:32:17.506Z,3.40
2023-03-21T15:34:47.177Z,3.30
2023-03-21T15:37:18.288Z,3.40
2023-03-21T15:39:46.270Z,3.70
2023-03-21T15:42:32.032Z,3.60
2023-03-21T15:45:02.769Z,3.20
2023-03-21T15:47:41.811Z,3.73
2023-03-21T15:50:17.395Z,3.07
2023-03-21T15:52:45.258Z,2.73
2023-03-21T15:55:25.928Z,2.50
2023-03-21T15:57:55.305Z,2.80
2023-03-21T16:00:26.926Z,4.03
2023-03-21T16:02:59.316Z,3.07
2023-03-21T16:05:30.708Z,3.20
2023-03-21T16:08:06.904Z,3.67
2023-03-21T16:10:37.669Z,2.50
2023-03-21T16:13:06.564Z,4.53
2023-03-21T16:15:34.350Z,2.70
2023-03-21T16:18:04.386Z,3.37
2023-03-21T16:20:37.741Z,3.50
2023-03-21T16:23:05.618Z,3.43
2023-03-21T16:25:33.424Z,2.63
2023-03-21T16:28:01.061Z,3.20
2023-03-21T16:30:28.677Z,3.10
2023-03-21T16:32:57.443Z,3.40
2023-03-21T16:35:26.078Z,2.87
2023-03-21T16:37:55.028Z,3.77
2023-03-21T16:40:27.578Z,4.00
2023-03-21T16:42:55.486Z,5.30
2023-03-21T16:45:23.782Z,2.70
2023-03-21T16:47:51.751Z,3.10
2023-03-21T16:50:24.313Z,3.33
2023-03-21T16:52:52.223Z,3.08
2023-03-21T16:55:21.818Z,5.23
2023-03-21T16:57:52.142Z,3.30
2023-03-21T17:00:23.276Z,2.97
2023-03-21T17:02:53.402Z,3.80
2023-03-21T17:05:22.093Z,2.93
2023-03-21T17:07:49.722Z,3.47
2023-03-21T17:10:19.619Z,3.10
2023-03-21T17:12:48.654Z,3.13
2023-03-21T17:15:17.170Z,3.23
2023-03-21T17:17:45.713Z,3.23
2023-03-21T17:20:19.163Z,4.33
2023-03-21T17:22:46.870Z,3.63
2023-03-21T17:25:14.547Z,4.23
2023-03-21T17:27:42.575Z,4.00
2023-03-21T17:30:21.454Z,5.17
2023-03-21T17:32:49.637Z,4.30
2023-03-21T17:35:17.794Z,5.60
2023-03-21T17:37:50.085Z,6.13
2023-03-21T17:40:20.707Z,5.93
2023-03-21T17:42:48.400Z,6.07
2023-03-21T17:45:18.051Z,6.77
2023-03-21T17:47:46.190Z,6.20
2023-03-21T17:50:19.503Z,6.87
2023-03-21T17:52:49.050Z,5.43
2023-03-21T17:55:19.491Z,5.50
2023-03-21T17:57:47.514Z,6.07
2023-03-21T18:00:20.916Z,6.00
2023-03-21T18:02:48.555Z,5.70
2023-03-21T18:05:17.516Z,5.93
2023-03-21T18:08:08.948Z,5.67
2023-03-21T18:10:33.945Z,5.03
2023-03-21T18:13:02.193Z,4.53
2023-03-21T18:15:31.274Z,5.67
2023-03-21T18:17:59.409Z,5.67
2023-03-21T18:20:49.929Z,4.80
2023-03-21T18:23:18.598Z,5.37
2023-03-21T18:25:47.164Z,6.30
2023-03-21T18:28:19.161Z,5.50
2023-03-21T18:31:11.464Z,4.83
2023-03-21T18:33:40.180Z,4.20
2023-03-21T18:36:08.712Z,4.07
2023-03-21T18:38:37.172Z,4.23
2023-03-21T18:41:05.541Z,4.07
2023-03-21T18:46:22.303Z,4.20
2023-03-21T18:48:51.569Z,4.70
2023-03-21T18:51:19.686Z,4.23
2023-03-21T18:53:47.748Z,4.30
2023-03-21T18:56:57.633Z,3.90
2023-03-21T18:59:03.500Z,5.97
2023-03-21T19:01:32.613Z,6.53
2023-03-21T19:04:16.495Z,5.73
2023-03-21T19:06:50.167Z,5.57
2023-03-21T19:09:18.856Z,6.50
2023-03-21T19:11:47.397Z,8.17
2023-03-21T19:14:16.844Z,8.67
2023-03-21T19:17:26.964Z,7.37
2023-03-21T19:19:34.462Z,7.37
2023-03-21T19:22:02.260Z,7.90
2023-03-21T19:24:29.850Z,5.00
2023-03-21T19:26:57.612Z,5.70
2023-03-21T19:29:25.793Z,8.80
2023-03-21T19:31:54.883Z,8.73
2023-03-21T19:34:22.542Z,8.23
2023-03-21T19:36:51.819Z,7.93
2023-03-21T19:39:22.119Z,7.30
2023-03-21T19:41:50.248Z,5.20
2023-03-21T19:44:19.111Z,5.53
2023-03-21T19:46:48.340Z,5.50
2023-03-21T19:49:22.113Z,3.90
2023-03-21T19:51:50.071Z,4.30
2023-03-21T19:54:18.477Z,4.73
2023-03-21T19:56:47.440Z,4.50
2023-03-21T19:59:15.912Z,4.87
2023-03-21T20:01:43.480Z,4.50
2023-03-21T20:04:11.292Z,5.93
2023-03-21T20:06:40.427Z,5.37
2023-03-21T20:11:57.755Z,11.07
2023-03-21T20:14:25.803Z,8.43
2023-03-21T20:16:55.374Z,8.70
2023-03-21T20:19:23.035Z,9.07
2023-03-21T20:21:58.731Z,9.23
2023-03-21T20:24:28.190Z,7.10
2023-03-21T20:26:56.151Z,6.97
2023-03-21T20:32:11.509Z,7.67
2023-03-21T20:34:39.288Z,7.30
2023-03-21T20:37:08.403Z,7.30
2023-03-21T20:39:36.232Z,6.43
2023-03-21T20:42:05.431Z,6.60
2023-03-21T20:44:58.459Z,7.47
2023-03-21T20:47:20.932Z,9.97
2023-03-21T20:49:49.481Z,10.43
2023-03-21T20:55:09.021Z,6.40
2023-03-21T20:57:38.769Z,6.37
2023-03-21T21:00:13.707Z,6.53
2023-03-21T21:02:42.139Z,6.20
2023-03-21T21:05:25.323Z,7.70
2023-03-21T21:07:57.349Z,10.10
2023-03-21T21:10:36.460Z,8.10
2023-03-21T21:13:12.624Z,8.33
2023-03-21T21:15:40.205Z,8.73
2023-03-21T21:18:08.469Z,8.00
2023-03-21T21:20:37.201Z,8.50
2023-03-21T21:23:06.687Z,8.40
2023-03-21T21:25:35.549Z,7.97
2023-03-21T21:28:03.650Z,7.80
2023-03-21T21:30:32.477Z,7.00
2023-03-21T21:33:00.757Z,7.03
2023-03-21T21:35:28.489Z,7.13
2023-03-21T21:37:56.145Z,8.93
2023-03-21T21:40:25.608Z,8.30
2023-03-21T21:42:53.692Z,7.90
2023-03-21T21:45:21.547Z,7.93
2023-03-21T21:47:49.397Z,7.17
2023-03-21T21:50:17.146Z,7.17
2023-03-21T21:52:52.530Z,6.87
2023-03-21T21:55:20.407Z,7.47
2023-03-21T21:57:51.006Z,6.30
2023-03-21T22:00:20.276Z,6.10
2023-03-21T22:02:48.051Z,5.77
2023-03-21T22:05:16.280Z,6.43
2023-03-21T22:07:44.324Z,6.30
2023-03-21T22:10:12.302Z,6.23
2023-03-21T22:12:39.847Z,6.60
2023-03-21T22:15:10.738Z,7.00
2023-03-21T22:17:38.730Z,6.70
2023-03-21T22:20:08.763Z,6.20
2023-03-21T22:22:37.168Z,6.20
2023-03-21T22:25:06.238Z,6.43
2023-03-21T22:27:34.399Z,8.27
2023-03-21T22:30:04.681Z,9.10
2023-03-21T22:32:33.644Z,8.07
2023-03-21T22:35:02.453Z,8.90
2023-03-21T22:37:30.141Z,7.97
2023-03-21T22:39:57.786Z,8.10
2023-03-21T22:42:25.382Z,7.53
2023-03-21T22:44:52.952Z,6.23
2023-03-21T22:47:20.866Z,6.13
2023-03-21T22:49:50.030Z,5.97
2023-03-21T22:52:17.686Z,4.83
2023-03-21T22:54:45.893Z,4.70
2023-03-21T22:57:14.046Z,4.93
2023-03-21T22:59:41.832Z,5.97
2023-03-21T23:02:09.993Z,4.87
2023-03-21T23:04:37.825Z,5.60
2023-03-21T23:07:06.901Z,5.83
2023-03-21T23:09:34.612Z,4.83
2023-03-21T23:12:02.155Z,5.53
2023-03-21T23:14:29.816Z,5.40
2023-03-21T23:17:02.559Z,4.80
2023-03-21T23:19:31.278Z,4.90
2023-03-21T23:21:59.118Z,4.93
2023-03-21T23:24:28.128Z,6.10
2023-03-21T23:26:55.823Z,6.10
2023-03-21T23:29:23.375Z,7.10
2023-03-21T23:31:51.082Z,6.80
2023-03-21T23:34:18.772Z,7.93
2023-03-21T23:36:46.296Z,7.00
2023-03-21T23:39:13.937Z,6.80
2023-03-21T23:41:45.142Z,6.43
2023-03-21T23:44:12.689Z,7.90
2023-03-21T23:46:40.236Z,7.07
2023-03-21T23:49:07.746Z,7.30
2023-03-21T23:51:35.301Z,7.63
2023-03-21T23:54:02.902Z,6.00
2023-03-21T23:56:30.478Z,6.10
2023-03-21T23:59:00.047Z,5.50
